Aroma Park, IL (60910)

5:56 PM CDT on March 25, 2017 (GMT -0500)
Kankakee Nursery Office | | Change Station

Elev 607 ft 41.06 °N, 87.80 °W | Updated 21 seconds ago

Mostly Cloudy
Mostly Cloudy
58.8 °F
Feels Like 58.8 °F
N
2.9
Wind Variable Wind from NNE
Gusts 4.9 mph

Today
High -- | Low -- °F
--% Chance of Precip.
Yesterday
High -- | Low -- °F
Precip. -- in
Pressure 29.93 in
Visibility 2.5 miles
Clouds Scattered Clouds 200 ft
Scattered Clouds 4400 ft
Mostly Cloudy 6000 ft
Dew Point 58 °F
Humidity 98%
Rainfall 0.32 in
Snow Depth Not available.
6:45 AM 7:09 PM
Waning Crescent, 6% visible
METAR KIKK 252235Z AUTO 04005KT 2 1/2SM BR SCT002 SCT044 BKN060 14/14 A2993 RMK AO2 T01440140
Pressure 29.93 in
Visibility 2.5 miles
Clouds Scattered Clouds 200 ft
Scattered Clouds 4400 ft
Mostly Cloudy 6000 ft
Dew Point 58 °F
Humidity 98%
Rainfall 0.32 in
Snow Depth Not available.
6:45 AM 7:09 PM
Waning Crescent, 6% visible
METAR KIKK 252235Z AUTO 04005KT 2 1/2SM BR SCT002 SCT044 BKN060 14/14 A2993 RMK AO2 T01440140

Get Severe Weather Alerts

Thanks for signing up!

Be on the lookout for a verification email in your inbox.

You'll start receiving the daily forecast at 8 AM.

×

10-Day Weather Forecast

Almanac

Astronomy

Mar. 25, 2017 Rise Set
Actual Time
Civil Twilight
Nautical Twilight
Astronomical Twilight
Moon
Length of Visible Light
Length of Day
Tomorrow will be .
, % of the Moon is Illuminated

Today's Extremes

State Highs State Lows

Community

WunderPhotos

Upload Photos

1,962,540 photos uploaded!

WunderBlog® & News

Nearby

Air Quality

  Air Quality AQ Index Pollutant
Not available.

Snow Depth

Station Depth Elevation

Earthquake Activity

City Distance Mag. Time & Date
Minimum magnitude displayed is 2.5.

Earthquake Activity

City Distance Mag. Time & Date
Minimum magnitude displayed is 2.5.

Coastal Water Temperatures

Place Temperature

Stations

Nearby Weather Stations

Station Location Temp. Windchill Dew Point Humidity Wind Precip. Elev Updated Type
                   

Watches & Warnings

There are currently no watches in effect.